sensor_id;sensor_type;location;lat;lon;timestamp;temperature;humidity
1347;DHT22;667;48.796;9.480;2023-09-19T07:28:42;19.40;85.60
1347;DHT22;667;48.796;9.480;2023-09-19T07:31:08;19.40;86.10
1347;DHT22;667;48.796;9.480;2023-09-19T07:33:35;19.50;86.20
1347;DHT22;667;48.796;9.480;2023-09-19T07:36:01;19.50;86.20
1347;DHT22;667;48.796;9.480;2023-09-19T07:38:27;19.60;86.10
1347;DHT22;667;48.796;9.480;2023-09-19T07:40:52;19.70;86.30
1347;DHT22;667;48.796;9.480;2023-09-19T07:43:18;19.70;86.20
1347;DHT22;667;48.796;9.480;2023-09-19T07:45:44;19.80;86.20
1347;DHT22;667;48.796;9.480;2023-09-19T07:48:09;19.80;86.30
1347;DHT22;667;48.796;9.480;2023-09-19T07:50:40;19.90;86.20
1347;DHT22;667;48.796;9.480;2023-09-19T07:53:06;19.90;85.70
1347;DHT22;667;48.796;9.480;2023-09-19T07:55:31;19.90;85.30
1347;DHT22;667;48.796;9.480;2023-09-19T07:57:59;20.00;85.30
1347;DHT22;667;48.796;9.480;2023-09-19T08:00:25;20.00;85.30
1347;DHT22;667;48.796;9.480;2023-09-19T08:02:50;20.10;85.40
1347;DHT22;667;48.796;9.480;2023-09-19T08:05:17;20.10;85.30
1347;DHT22;667;48.796;9.480;2023-09-19T08:07:45;20.10;85.30
1347;DHT22;667;48.796;9.480;2023-09-19T08:10:14;20.20;85.00
1347;DHT22;667;48.796;9.480;2023-09-19T08:12:42;20.20;84.20
1347;DHT22;667;48.796;9.480;2023-09-19T08:15:14;20.10;83.90
1347;DHT22;667;48.796;9.480;2023-09-19T08:17:40;20.20;83.60
1347;DHT22;667;48.796;9.480;2023-09-19T08:20:06;20.20;83.40
1347;DHT22;667;48.796;9.480;2023-09-19T08:22:32;20.20;83.30
1347;DHT22;667;48.796;9.480;2023-09-19T08:24:58;20.30;83.60
1347;DHT22;667;48.796;9.480;2023-09-19T08:27:24;20.30;83.40
1347;DHT22;667;48.796;9.480;2023-09-19T08:29:53;20.30;83.40
1347;DHT22;667;48.796;9.480;2023-09-19T08:32:18;20.30;83.10
1347;DHT22;667;48.796;9.480;2023-09-19T08:34:49;20.40;82.80
1347;DHT22;667;48.796;9.480;2023-09-19T08:37:15;20.40;82.50
1347;DHT22;667;48.796;9.480;2023-09-19T08:39:42;20.40;82.50
1347;DHT22;667;48.796;9.480;2023-09-19T08:42:08;20.50;82.60
1347;DHT22;667;48.796;9.480;2023-09-19T08:44:36;20.50;82.50
1347;DHT22;667;48.796;9.480;2023-09-19T08:47:15;20.60;82.10
1347;DHT22;667;48.796;9.480;2023-09-19T08:50:01;20.60;81.50
1347;DHT22;667;48.796;9.480;2023-09-19T08:52:42;20.60;81.20
1347;DHT22;667;48.796;9.480;2023-09-19T08:55:13;20.60;81.10
1347;DHT22;667;48.796;9.480;2023-09-19T08:57:45;20.70;80.90
1347;DHT22;667;48.796;9.480;2023-09-19T09:00:15;20.70;81.20
1347;DHT22;667;48.796;9.480;2023-09-19T09:02:43;20.70;80.40
1347;DHT22;667;48.796;9.480;2023-09-19T09:05:11;20.70;80.30
1347;DHT22;667;48.796;9.480;2023-09-19T09:07:38;20.70;80.30
1347;DHT22;667;48.796;9.480;2023-09-19T09:10:04;20.70;80.00
1347;DHT22;667;48.796;9.480;2023-09-19T09:12:30;20.70;79.80
1347;DHT22;667;48.796;9.480;2023-09-19T09:14:56;20.80;80.20
1347;DHT22;667;48.796;9.480;2023-09-19T09:17:23;20.80;80.20
1347;DHT22;667;48.796;9.480;2023-09-19T09:19:53;20.70;79.70
1347;DHT22;667;48.796;9.480;2023-09-19T09:22:18;20.70;79.40
1347;DHT22;667;48.796;9.480;2023-09-19T09:24:53;20.70;79.50
1347;DHT22;667;48.796;9.480;2023-09-19T09:27:20;20.70;79.40
1347;DHT22;667;48.796;9.480;2023-09-19T09:29:48;20.70;79.50
1347;DHT22;667;48.796;9.480;2023-09-19T09:34:44;20.80;80.00
1347;DHT22;667;48.796;9.480;2023-09-19T09:37:16;20.80;79.90
1347;DHT22;667;48.796;9.480;2023-09-19T09:39:50;20.80;79.30
1347;DHT22;667;48.796;9.480;2023-09-19T09:42:33;20.80;78.70
1347;DHT22;667;48.796;9.480;2023-09-19T09:45:30;20.80;78.80
1347;DHT22;667;48.796;9.480;2023-09-19T09:47:59;20.90;78.50
1347;DHT22;667;48.796;9.480;2023-09-19T09:50:30;20.90;78.30
1347;DHT22;667;48.796;9.480;2023-09-19T09:53:28;20.90;77.90
1347;DHT22;667;48.796;9.480;2023-09-19T09:55:58;20.90;75.90
1347;DHT22;667;48.796;9.480;2023-09-19T09:58:27;20.90;74.60
1347;DHT22;667;48.796;9.480;2023-09-19T10:00:58;20.90;74.90
1347;DHT22;667;48.796;9.480;2023-09-19T10:03:41;20.90;74.50
1347;DHT22;667;48.796;9.480;2023-09-19T10:06:14;20.90;73.50
1347;DHT22;667;48.796;9.480;2023-09-19T10:11:44;20.90;72.90
1347;DHT22;667;48.796;9.480;2023-09-19T10:14:11;20.90;72.70
1347;DHT22;667;48.796;9.480;2023-09-19T10:16:46;21.00;72.00
1347;DHT22;667;48.796;9.480;2023-09-19T10:19:20;21.10;72.00
1347;DHT22;667;48.796;9.480;2023-09-19T10:21:49;21.10;71.50
1347;DHT22;667;48.796;9.480;2023-09-19T10:24:15;21.20;70.90
1347;DHT22;667;48.796;9.480;2023-09-19T10:26:44;21.30;70.40
1347;DHT22;667;48.796;9.480;2023-09-19T10:29:12;21.50;69.70
1347;DHT22;667;48.796;9.480;2023-09-19T10:31:39;21.50;68.70
1347;DHT22;667;48.796;9.480;2023-09-19T10:34:16;21.70;68.60
1347;DHT22;667;48.796;9.480;2023-09-19T10:36:44;21.80;68.30
1347;DHT22;667;48.796;9.480;2023-09-19T10:39:11;21.90;67.90
1347;DHT22;667;48.796;9.480;2023-09-19T10:41:39;21.90;68.00
1347;DHT22;667;48.796;9.480;2023-09-19T10:44:05;22.00;67.30
1347;DHT22;667;48.796;9.480;2023-09-19T10:46:32;22.00;66.80
1347;DHT22;667;48.796;9.480;2023-09-19T10:49:02;22.00;66.90
1347;DHT22;667;48.796;9.480;2023-09-19T10:51:40;22.00;66.50
1347;DHT22;667;48.796;9.480;2023-09-19T10:54:12;22.00;65.10
1347;DHT22;667;48.796;9.480;2023-09-19T10:56:43;22.10;65.00
1347;DHT22;667;48.796;9.480;2023-09-19T10:59:16;22.20;65.20
1347;DHT22;667;48.796;9.480;2023-09-19T11:01:55;22.20;65.20
1347;DHT22;667;48.796;9.480;2023-09-19T11:04:27;22.30;64.40
1347;DHT22;667;48.796;9.480;2023-09-19T11:12:12;22.70;63.80
1347;DHT22;667;48.796;9.480;2023-09-19T11:14:39;22.70;62.60
1347;DHT22;667;48.796;9.480;2023-09-19T11:30:44;22.90;61.00
1347;DHT22;667;48.796;9.480;2023-09-19T11:36:11;23.00;61.40
1347;DHT22;667;48.796;9.480;2023-09-19T11:43:47;23.20;60.30
1347;DHT22;667;48.796;9.480;2023-09-19T11:46:13;23.20;60.20
1347;DHT22;667;48.796;9.480;2023-09-19T11:48:43;23.30;60.10
1347;DHT22;667;48.796;9.480;2023-09-19T11:51:13;23.30;59.20
1347;DHT22;667;48.796;9.480;2023-09-19T11:53:47;23.30;58.20
1347;DHT22;667;48.796;9.480;2023-09-19T11:56:15;23.30;58.40
1347;DHT22;667;48.796;9.480;2023-09-19T11:58:45;23.30;58.50
1347;DHT22;667;48.796;9.480;2023-09-19T12:01:19;23.30;58.20
1347;DHT22;667;48.796;9.480;2023-09-19T12:03:47;23.30;57.90
1347;DHT22;667;48.796;9.480;2023-09-19T12:06:21;23.40;57.50
1347;DHT22;667;48.796;9.480;2023-09-19T12:08:48;23.40;56.80
1347;DHT22;667;48.796;9.480;2023-09-19T12:11:16;23.50;56.70
1347;DHT22;667;48.796;9.480;2023-09-19T12:13:43;23.40;56.50
1347;DHT22;667;48.796;9.480;2023-09-19T12:16:14;23.40;56.20
1347;DHT22;667;48.796;9.480;2023-09-19T12:18:44;23.40;56.40
1347;DHT22;667;48.796;9.480;2023-09-19T12:24:12;23.60;56.50
1347;DHT22;667;48.796;9.480;2023-09-19T12:26:43;23.50;56.60
1347;DHT22;667;48.796;9.480;2023-09-19T12:29:17;23.50;56.80
1347;DHT22;667;48.796;9.480;2023-09-19T12:31:57;23.50;57.10
1347;DHT22;667;48.796;9.480;2023-09-19T12:34:30;23.50;57.20
1347;DHT22;667;48.796;9.480;2023-09-19T12:37:13;23.50;57.00
1347;DHT22;667;48.796;9.480;2023-09-19T12:39:50;23.50;56.90
1347;DHT22;667;48.796;9.480;2023-09-19T12:42:22;23.50;56.90
1347;DHT22;667;48.796;9.480;2023-09-19T12:44:50;23.60;57.70
1347;DHT22;667;48.796;9.480;2023-09-19T12:47:21;23.60;57.10
1347;DHT22;667;48.796;9.480;2023-09-19T12:52:59;23.60;56.50
1347;DHT22;667;48.796;9.480;2023-09-19T12:55:29;23.70;56.70
1347;DHT22;667;48.796;9.480;2023-09-19T13:00:51;23.70;56.70
1347;DHT22;667;48.796;9.480;2023-09-19T13:03:27;23.70;56.70
1347;DHT22;667;48.796;9.480;2023-09-19T13:06:02;23.70;56.70
1347;DHT22;667;48.796;9.480;2023-09-19T13:08:34;23.80;56.90
1347;DHT22;667;48.796;9.480;2023-09-19T13:11:07;23.70;57.20
1347;DHT22;667;48.796;9.480;2023-09-19T13:16:04;23.70;57.40
1347;DHT22;667;48.796;9.480;2023-09-19T13:18:45;23.70;57.20
1347;DHT22;667;48.796;9.480;2023-09-19T13:21:14;23.80;57.10
1347;DHT22;667;48.796;9.480;2023-09-19T13:23:53;23.80;57.10
1347;DHT22;667;48.796;9.480;2023-09-19T13:26:27;23.90;57.10
1347;DHT22;667;48.796;9.480;2023-09-19T13:28:54;23.90;56.30
1347;DHT22;667;48.796;9.480;2023-09-19T13:31:20;23.90;56.40
1347;DHT22;667;48.796;9.480;2023-09-19T13:33:47;23.90;56.60
1347;DHT22;667;48.796;9.480;2023-09-19T13:36:13;23.90;56.80
1347;DHT22;667;48.796;9.480;2023-09-19T13:38:40;23.90;56.60
1347;DHT22;667;48.796;9.480;2023-09-19T13:41:08;23.90;55.70
1347;DHT22;667;48.796;9.480;2023-09-19T13:43:35;23.90;55.10
1347;DHT22;667;48.796;9.480;2023-09-19T13:46:01;23.80;55.20
1347;DHT22;667;48.796;9.480;2023-09-19T13:48:27;23.80;55.50
1347;DHT22;667;48.796;9.480;2023-09-19T13:50:55;23.80;55.50
1347;DHT22;667;48.796;9.480;2023-09-19T13:53:21;23.80;55.70
1347;DHT22;667;48.796;9.480;2023-09-19T13:55:47;23.80;55.60
1347;DHT22;667;48.796;9.480;2023-09-19T13:58:14;23.80;55.50
1347;DHT22;667;48.796;9.480;2023-09-19T14:00:40;23.90;55.40
1347;DHT22;667;48.796;9.480;2023-09-19T14:03:05;23.80;55.80
1347;DHT22;667;48.796;9.480;2023-09-19T14:05:31;23.90;55.30
1347;DHT22;667;48.796;9.480;2023-09-19T14:07:57;23.90;55.20
1347;DHT22;667;48.796;9.480;2023-09-19T14:10:25;23.90;55.30
1347;DHT22;667;48.796;9.480;2023-09-19T14:12:52;23.80;55.00
1347;DHT22;667;48.796;9.480;2023-09-19T14:15:18;23.80;55.00
1347;DHT22;667;48.796;9.480;2023-09-19T14:17:43;23.80;54.10
1347;DHT22;667;48.796;9.480;2023-09-19T14:20:12;23.70;54.40
1347;DHT22;667;48.796;9.480;2023-09-19T14:22:37;23.70;54.80
1347;DHT22;667;48.796;9.480;2023-09-19T14:25:04;23.60;54.50
1347;DHT22;667;48.796;9.480;2023-09-19T14:27:30;23.70;54.00
1347;DHT22;667;48.796;9.480;2023-09-19T14:29:56;23.70;54.40
1347;DHT22;667;48.796;9.480;2023-09-19T14:32:23;23.70;55.00
1347;DHT22;667;48.796;9.480;2023-09-19T14:34:49;23.60;55.20
1347;DHT22;667;48.796;9.480;2023-09-19T14:37:14;23.60;55.40
1347;DHT22;667;48.796;9.480;2023-09-19T14:39:42;23.60;55.20
1347;DHT22;667;48.796;9.480;2023-09-19T14:42:11;23.60;55.30
1347;DHT22;667;48.796;9.480;2023-09-19T14:44:37;23.60;55.50
1347;DHT22;667;48.796;9.480;2023-09-19T14:47:03;23.60;55.50
1347;DHT22;667;48.796;9.480;2023-09-19T14:49:33;23.60;55.60
1347;DHT22;667;48.796;9.480;2023-09-19T14:51:59;23.50;55.70
1347;DHT22;667;48.796;9.480;2023-09-19T14:54:24;23.60;55.50
1347;DHT22;667;48.796;9.480;2023-09-19T14:56:50;23.50;55.30
1347;DHT22;667;48.796;9.480;2023-09-19T14:59:29;23.50;55.30
1347;DHT22;667;48.796;9.480;2023-09-19T15:01:55;23.50;55.40
1347;DHT22;667;48.796;9.480;2023-09-19T15:04:20;23.50;55.50
1347;DHT22;667;48.796;9.480;2023-09-19T15:06:46;23.50;55.30
1347;DHT22;667;48.796;9.480;2023-09-19T15:09:13;23.50;55.50
1347;DHT22;667;48.796;9.480;2023-09-19T15:11:45;23.50;55.70
1347;DHT22;667;48.796;9.480;2023-09-19T15:14:11;23.50;55.70
1347;DHT22;667;48.796;9.480;2023-09-19T15:16:36;23.60;55.60
1347;DHT22;667;48.796;9.480;2023-09-19T15:19:02;23.50;55.30
1347;DHT22;667;48.796;9.480;2023-09-19T15:21:27;23.60;54.80
1347;DHT22;667;48.796;9.480;2023-09-19T15:23:53;23.60;54.60
1347;DHT22;667;48.796;9.480;2023-09-19T15:26:18;23.50;54.80
1347;DHT22;667;48.796;9.480;2023-09-19T15:28:47;23.50;55.20
1347;DHT22;667;48.796;9.480;2023-09-19T15:31:13;23.50;55.30
1347;DHT22;667;48.796;9.480;2023-09-19T15:33:40;23.50;55.50
1347;DHT22;667;48.796;9.480;2023-09-19T15:39:00;23.50;55.90
1347;DHT22;667;48.796;9.480;2023-09-19T15:41:39;23.40;56.10
1347;DHT22;667;48.796;9.480;2023-09-19T15:44:12;23.40;56.10
1347;DHT22;667;48.796;9.480;2023-09-19T15:46:38;23.40;56.10
1347;DHT22;667;48.796;9.480;2023-09-19T15:49:04;23.40;56.20
1347;DHT22;667;48.796;9.480;2023-09-19T15:51:29;23.40;56.50
1347;DHT22;667;48.796;9.480;2023-09-19T15:53:56;23.40;56.40
1347;DHT22;667;48.796;9.480;2023-09-19T15:56:23;23.40;56.50
1347;DHT22;667;48.796;9.480;2023-09-19T15:58:54;23.30;56.70
1347;DHT22;667;48.796;9.480;2023-09-19T16:01:21;23.40;56.70
1347;DHT22;667;48.796;9.480;2023-09-19T16:03:49;23.30;56.20
1347;DHT22;667;48.796;9.480;2023-09-19T16:06:22;23.30;56.10
1347;DHT22;667;48.796;9.480;2023-09-19T16:08:53;23.30;56.30
1347;DHT22;667;48.796;9.480;2023-09-19T16:11:19;23.20;56.00
1347;DHT22;667;48.796;9.480;2023-09-19T16:13:47;23.30;56.30
1347;DHT22;667;48.796;9.480;2023-09-19T16:16:14;23.30;55.60
1347;DHT22;667;48.796;9.480;2023-09-19T16:18:54;23.20;55.60
1347;DHT22;667;48.796;9.480;2023-09-19T16:21:23;23.20;55.80
1347;DHT22;667;48.796;9.480;2023-09-19T16:23:50;23.20;56.20
1347;DHT22;667;48.796;9.480;2023-09-19T16:26:17;23.20;56.30
1347;DHT22;667;48.796;9.480;2023-09-19T16:28:47;23.10;56.40
1347;DHT22;667;48.796;9.480;2023-09-19T16:31:14;23.10;56.90
1347;DHT22;667;48.796;9.480;2023-09-19T16:33:42;23.10;57.30
1347;DHT22;667;48.796;9.480;2023-09-19T16:36:15;23.10;57.40
1347;DHT22;667;48.796;9.480;2023-09-19T16:38:42;23.10;57.30
1347;DHT22;667;48.796;9.480;2023-09-19T16:41:08;23.00;58.10
1347;DHT22;667;48.796;9.480;2023-09-19T16:43:34;23.00;59.30
1347;DHT22;667;48.796;9.480;2023-09-19T16:46:01;22.90;60.20
1347;DHT22;667;48.796;9.480;2023-09-19T16:48:28;22.90;61.30
1347;DHT22;667;48.796;9.480;2023-09-19T16:51:17;22.90;61.70
1347;DHT22;667;48.796;9.480;2023-09-19T16:53:43;22.80;61.80
1347;DHT22;667;48.796;9.480;2023-09-19T16:56:13;22.80;61.80
1347;DHT22;667;48.796;9.480;2023-09-19T16:58:42;22.70;61.70
1347;DHT22;667;48.796;9.480;2023-09-19T17:01:08;22.70;62.80
1347;DHT22;667;48.796;9.480;2023-09-19T17:03:38;22.70;63.90
1347;DHT22;667;48.796;9.480;2023-09-19T17:06:06;22.60;65.20
1347;DHT22;667;48.796;9.480;2023-09-19T17:08:32;22.50;65.80
1347;DHT22;667;48.796;9.480;2023-09-19T17:11:09;22.40;66.10
1347;DHT22;667;48.796;9.480;2023-09-19T17:13:38;22.30;66.50
1347;DHT22;667;48.796;9.480;2023-09-19T17:16:08;22.20;66.40
1347;DHT22;667;48.796;9.480;2023-09-19T17:18:35;22.10;66.30
1347;DHT22;667;48.796;9.480;2023-09-19T17:21:01;22.00;65.60
1347;DHT22;667;48.796;9.480;2023-09-19T17:23:31;22.00;65.90
1347;DHT22;667;48.796;9.480;2023-09-19T17:26:06;21.90;66.20
1347;DHT22;667;48.796;9.480;2023-09-19T17:28:34;21.80;66.40
1347;DHT22;667;48.796;9.480;2023-09-19T17:31:12;21.70;66.40
1347;DHT22;667;48.796;9.480;2023-09-19T17:33:38;21.70;66.40
1347;DHT22;667;48.796;9.480;2023-09-19T17:38:38;21.50;65.90
1347;DHT22;667;48.796;9.480;2023-09-19T17:41:04;21.40;66.00
1347;DHT22;667;48.796;9.480;2023-09-19T17:43:36;21.40;66.20
1347;DHT22;667;48.796;9.480;2023-09-19T17:48:40;21.20;67.10
1347;DHT22;667;48.796;9.480;2023-09-19T17:51:07;21.20;67.20
1347;DHT22;667;48.796;9.480;2023-09-19T17:53:35;21.10;67.10
1347;DHT22;667;48.796;9.480;2023-09-19T17:56:00;21.10;67.20
1347;DHT22;667;48.796;9.480;2023-09-19T17:58:27;21.00;68.30
1347;DHT22;667;48.796;9.480;2023-09-19T18:00:53;21.00;67.50
1347;DHT22;667;48.796;9.480;2023-09-19T18:03:19;20.90;67.50
1347;DHT22;667;48.796;9.480;2023-09-19T18:05:45;20.90;67.70
1347;DHT22;667;48.796;9.480;2023-09-19T18:08:15;20.80;67.60
1347;DHT22;667;48.796;9.480;2023-09-19T18:10:41;20.80;67.80
1347;DHT22;667;48.796;9.480;2023-09-19T18:13:07;20.80;68.20
1347;DHT22;667;48.796;9.480;2023-09-19T18:15:35;20.70;68.20
1347;DHT22;667;48.796;9.480;2023-09-19T18:18:04;20.70;68.30
1347;DHT22;667;48.796;9.480;2023-09-19T18:20:34;20.70;68.40
1347;DHT22;667;48.796;9.480;2023-09-19T18:22:59;20.60;68.20
1347;DHT22;667;48.796;9.480;2023-09-19T18:25:25;20.60;68.20
1347;DHT22;667;48.796;9.480;2023-09-19T18:27:51;20.50;68.40
1347;DHT22;667;48.796;9.480;2023-09-19T18:30:16;20.50;68.70
1347;DHT22;667;48.796;9.480;2023-09-19T18:32:42;20.50;68.60
1347;DHT22;667;48.796;9.480;2023-09-19T18:35:08;20.40;68.60
1347;DHT22;667;48.796;9.480;2023-09-19T18:37:34;20.40;68.50
1347;DHT22;667;48.796;9.480;2023-09-19T18:40:01;20.40;68.20
1347;DHT22;667;48.796;9.480;2023-09-19T18:42:26;20.30;68.30
1347;DHT22;667;48.796;9.480;2023-09-19T18:44:52;20.30;68.40
1347;DHT22;667;48.796;9.480;2023-09-19T18:47:18;20.20;68.30
1347;DHT22;667;48.796;9.480;2023-09-19T18:49:48;20.20;68.50
1347;DHT22;667;48.796;9.480;2023-09-19T18:52:13;20.10;68.70
1347;DHT22;667;48.796;9.480;2023-09-19T18:54:39;20.10;69.00
1347;DHT22;667;48.796;9.480;2023-09-19T18:57:04;20.10;69.30
1347;DHT22;667;48.796;9.480;2023-09-19T18:59:30;20.10;69.60
1347;DHT22;667;48.796;9.480;2023-09-19T19:01:56;20.10;69.60
1347;DHT22;667;48.796;9.480;2023-09-19T19:04:23;20.10;69.70
1347;DHT22;667;48.796;9.480;2023-09-19T19:06:50;20.10;69.70
1347;DHT22;667;48.796;9.480;2023-09-19T19:09:16;20.10;70.20
1347;DHT22;667;48.796;9.480;2023-09-19T19:11:44;20.00;70.80
1347;DHT22;667;48.796;9.480;2023-09-19T19:14:10;20.00;70.20
1347;DHT22;667;48.796;9.480;2023-09-19T19:16:37;20.00;70.40
1347;DHT22;667;48.796;9.480;2023-09-19T19:19:04;20.00;70.60
1347;DHT22;667;48.796;9.480;2023-09-19T19:21:36;20.00;70.60
1347;DHT22;667;48.796;9.480;2023-09-19T19:24:02;20.00;70.60
1347;DHT22;667;48.796;9.480;2023-09-19T19:26:28;20.00;70.90
1347;DHT22;667;48.796;9.480;2023-09-19T19:28:53;20.00;70.90
1347;DHT22;667;48.796;9.480;2023-09-19T19:31:19;20.00;70.90
1347;DHT22;667;48.796;9.480;2023-09-19T19:33:44;19.90;71.00
1347;DHT22;667;48.796;9.480;2023-09-19T19:36:11;19.90;71.10
1347;DHT22;667;48.796;9.480;2023-09-19T19:38:38;19.90;71.40
1347;DHT22;667;48.796;9.480;2023-09-19T19:41:04;19.90;71.30
1347;DHT22;667;48.796;9.480;2023-09-19T19:43:30;19.80;71.30
1347;DHT22;667;48.796;9.480;2023-09-19T19:45:57;19.80;71.50
1347;DHT22;667;48.796;9.480;2023-09-19T19:48:24;19.80;71.50
1347;DHT22;667;48.796;9.480;2023-09-19T19:50:50;19.80;71.50
1347;DHT22;667;48.796;9.480;2023-09-19T19:53:15;19.70;71.70
1347;DHT22;667;48.796;9.480;2023-09-19T19:55:41;19.70;71.70
1347;DHT22;667;48.796;9.480;2023-09-19T19:58:08;19.70;71.90
1347;DHT22;667;48.796;9.480;2023-09-19T20:00:33;19.60;71.90
1347;DHT22;667;48.796;9.480;2023-09-19T20:03:00;19.60;72.10
1347;DHT22;667;48.796;9.480;2023-09-19T20:05:26;19.60;72.30
1347;DHT22;667;48.796;9.480;2023-09-19T20:07:52;19.50;72.30
1347;DHT22;667;48.796;9.480;2023-09-19T20:10:18;19.50;72.50
1347;DHT22;667;48.796;9.480;2023-09-19T20:12:49;19.40;72.50
1347;DHT22;667;48.796;9.480;2023-09-19T20:15:15;19.40;72.60
1347;DHT22;667;48.796;9.480;2023-09-19T20:17:40;19.40;72.80
1347;DHT22;667;48.796;9.480;2023-09-19T20:20:07;19.30;72.90
1347;DHT22;667;48.796;9.480;2023-09-19T20:22:46;19.30;73.00
1347;DHT22;667;48.796;9.480;2023-09-19T20:25:14;19.30;73.20
1347;DHT22;667;48.796;9.480;2023-09-19T20:27:41;19.20;73.30
1347;DHT22;667;48.796;9.480;2023-09-19T20:30:07;19.20;73.30
1347;DHT22;667;48.796;9.480;2023-09-19T20:32:34;19.20;73.40
1347;DHT22;667;48.796;9.480;2023-09-19T20:35:03;19.20;73.30
1347;DHT22;667;48.796;9.480;2023-09-19T20:37:29;19.20;73.40
1347;DHT22;667;48.796;9.480;2023-09-19T20:39:55;19.10;73.30
1347;DHT22;667;48.796;9.480;2023-09-19T20:42:21;19.10;73.40
1347;DHT22;667;48.796;9.480;2023-09-19T20:44:48;19.10;73.50
1347;DHT22;667;48.796;9.480;2023-09-19T20:47:14;19.00;73.40
1347;DHT22;667;48.796;9.480;2023-09-19T20:49:40;19.00;73.40
1347;DHT22;667;48.796;9.480;2023-09-19T20:52:05;19.00;73.50
1347;DHT22;667;48.796;9.480;2023-09-19T20:54:31;18.90;73.40
1347;DHT22;667;48.796;9.480;2023-09-19T20:56:57;18.90;73.80
1347;DHT22;667;48.796;9.480;2023-09-19T20:59:23;18.90;73.80
1347;DHT22;667;48.796;9.480;2023-09-19T21:01:51;18.80;73.80
1347;DHT22;667;48.796;9.480;2023-09-19T21:04:17;18.80;73.90
1347;DHT22;667;48.796;9.480;2023-09-19T21:06:43;18.80;74.00
1347;DHT22;667;48.796;9.480;2023-09-19T21:09:09;18.70;73.80
1347;DHT22;667;48.796;9.480;2023-09-19T21:11:35;18.70;73.80
1347;DHT22;667;48.796;9.480;2023-09-19T21:14:01;18.70;73.90
1347;DHT22;667;48.796;9.480;2023-09-19T21:16:27;18.70;74.00
1347;DHT22;667;48.796;9.480;2023-09-19T21:18:53;18.60;73.90
1347;DHT22;667;48.796;9.480;2023-09-19T21:21:18;18.60;74.00
1347;DHT22;667;48.796;9.480;2023-09-19T21:23:46;18.60;73.90
1347;DHT22;667;48.796;9.480;2023-09-19T21:26:12;18.50;73.80
1347;DHT22;667;48.796;9.480;2023-09-19T21:28:39;18.50;73.70
1347;DHT22;667;48.796;9.480;2023-09-19T21:31:07;18.50;73.80
1347;DHT22;667;48.796;9.480;2023-09-19T21:33:35;18.40;73.90
1347;DHT22;667;48.796;9.480;2023-09-19T21:36:05;18.40;74.00
1347;DHT22;667;48.796;9.480;2023-09-19T21:38:38;18.40;74.20
1347;DHT22;667;48.796;9.480;2023-09-19T21:41:12;18.30;74.20
1347;DHT22;667;48.796;9.480;2023-09-19T21:43:39;18.30;74.50
1347;DHT22;667;48.796;9.480;2023-09-19T21:46:05;18.30;74.50
1347;DHT22;667;48.796;9.480;2023-09-19T21:48:32;18.30;74.60
1347;DHT22;667;48.796;9.480;2023-09-19T21:50:57;18.20;74.60
1347;DHT22;667;48.796;9.480;2023-09-19T21:53:24;18.20;74.70
1347;DHT22;667;48.796;9.480;2023-09-19T21:55:50;18.20;74.80
1347;DHT22;667;48.796;9.480;2023-09-19T21:58:15;18.10;74.80
1347;DHT22;667;48.796;9.480;2023-09-19T22:00:42;18.20;75.00
1347;DHT22;667;48.796;9.480;2023-09-19T22:03:12;18.10;74.90
1347;DHT22;667;48.796;9.480;2023-09-19T22:05:38;18.10;74.90
1347;DHT22;667;48.796;9.480;2023-09-19T22:08:04;18.00;74.80
1347;DHT22;667;48.796;9.480;2023-09-19T22:10:30;18.10;74.90
1347;DHT22;667;48.796;9.480;2023-09-19T22:12:56;18.10;74.80
1347;DHT22;667;48.796;9.480;2023-09-19T22:15:27;18.10;74.80
1347;DHT22;667;48.796;9.480;2023-09-19T22:17:53;18.00;74.60
1347;DHT22;667;48.796;9.480;2023-09-19T22:20:19;17.90;74.70
1347;DHT22;667;48.796;9.480;2023-09-19T22:22:55;17.90;74.80
1347;DHT22;667;48.796;9.480;2023-09-19T22:25:25;17.90;74.90
1347;DHT22;667;48.796;9.480;2023-09-19T22:27:57;17.80;74.90
1347;DHT22;667;48.796;9.480;2023-09-19T22:30:23;17.80;74.90
1347;DHT22;667;48.796;9.480;2023-09-19T22:32:48;17.80;75.00
1347;DHT22;667;48.796;9.480;2023-09-19T22:35:15;17.70;74.90
1347;DHT22;667;48.796;9.480;2023-09-19T22:37:41;17.70;75.00
1347;DHT22;667;48.796;9.480;2023-09-19T22:40:08;17.70;75.00
1347;DHT22;667;48.796;9.480;2023-09-19T22:42:50;17.70;75.00
1347;DHT22;667;48.796;9.480;2023-09-19T22:45:15;17.70;75.20
1347;DHT22;667;48.796;9.480;2023-09-19T22:47:41;17.70;75.20
1347;DHT22;667;48.796;9.480;2023-09-19T22:50:09;17.60;75.10
1347;DHT22;667;48.796;9.480;2023-09-19T22:52:35;17.60;75.10
1347;DHT22;667;48.796;9.480;2023-09-19T22:55:02;17.60;75.20
1347;DHT22;667;48.796;9.480;2023-09-19T22:57:31;17.60;75.30
1347;DHT22;667;48.796;9.480;2023-09-19T22:59:58;17.60;75.30
1347;DHT22;667;48.796;9.480;2023-09-19T23:02:24;17.60;75.30
1347;DHT22;667;48.796;9.480;2023-09-19T23:04:54;17.60;75.30
1347;DHT22;667;48.796;9.480;2023-09-19T23:07:26;17.60;75.30
1347;DHT22;667;48.796;9.480;2023-09-19T23:09:52;17.50;75.20
1347;DHT22;667;48.796;9.480;2023-09-19T23:12:18;17.50;75.60
1347;DHT22;667;48.796;9.480;2023-09-19T23:14:49;17.50;74.90
1347;DHT22;667;48.796;9.480;2023-09-19T23:17:14;17.50;75.20
1347;DHT22;667;48.796;9.480;2023-09-19T23:19:46;17.50;75.30
1347;DHT22;667;48.796;9.480;2023-09-19T23:22:18;17.40;75.10
1347;DHT22;667;48.796;9.480;2023-09-19T23:24:44;17.40;75.10
1347;DHT22;667;48.796;9.480;2023-09-19T23:27:14;17.40;75.10
1347;DHT22;667;48.796;9.480;2023-09-19T23:29:50;17.40;75.30
1347;DHT22;667;48.796;9.480;2023-09-19T23:32:16;17.40;75.40
1347;DHT22;667;48.796;9.480;2023-09-19T23:34:42;17.30;75.10
1347;DHT22;667;48.796;9.480;2023-09-19T23:37:08;17.30;75.10
1347;DHT22;667;48.796;9.480;2023-09-19T23:39:34;17.30;75.20
1347;DHT22;667;48.796;9.480;2023-09-19T23:42:02;17.30;75.30
1347;DHT22;667;48.796;9.480;2023-09-19T23:44:28;17.30;75.30
1347;DHT22;667;48.796;9.480;2023-09-19T23:46:55;17.30;75.00
1347;DHT22;667;48.796;9.480;2023-09-19T23:49:23;17.20;75.10
1347;DHT22;667;48.796;9.480;2023-09-19T23:51:49;17.20;75.30
1347;DHT22;667;48.796;9.480;2023-09-19T23:54:17;17.20;75.50
1347;DHT22;667;48.796;9.480;2023-09-19T23:56:52;17.20;75.60
1347;DHT22;667;48.796;9.480;2023-09-19T23:59:19;17.20;75.40
